Time;durP1;ratioP1;P1;durP2;ratioP2;P2;SDS_P1;SDS_P2;PMS_P1;PMS_P2;Temp;Humidity;BMP_temperature;BMP_pressure;BME280_temperature;BME280_humidity;BME280_pressure;Samples;Min_cycle;Max_cycle;Signal;HPM_P1;HPM_P2
2023/03/02 00:02:31;;;;;;;31.50;22.70;;;4.80;99.90;;;;;;1883713;76;21095;-91
2023/03/02 00:05:23;;;;;;;25.90;21.10;;;4.80;99.90;;;;;;1916453;75;21063;-89
2023/03/02 00:08:16;;;;;;;26.77;20.80;;;4.70;99.90;;;;;;1894156;75;21102;-90
2023/03/02 00:11:07;;;;;;;27.93;21.37;;;4.70;99.90;;;;;;1916803;75;21161;-89
2023/03/02 00:13:59;;;;;;;28.65;20.65;;;4.80;99.90;;;;;;1898772;75;21197;-91
2023/03/02 00:16:50;;;;;;;28.83;22.00;;;4.80;99.90;;;;;;1867332;76;21095;-89
2023/03/02 00:19:43;;;;;;;25.45;20.48;;;4.80;99.90;;;;;;1912893;75;21149;-90
2023/03/02 00:22:35;;;;;;;28.55;21.70;;;4.80;99.90;;;;;;1916650;75;21091;-90
2023/03/02 00:25:27;;;;;;;25.95;20.75;;;4.80;99.90;;;;;;1916493;75;21145;-90
2023/03/02 00:28:25;;;;;;;26.97;21.12;;;4.80;99.90;;;;;;1897653;75;21160;-89
2023/03/02 00:31:23;;;;;;;27.27;21.77;;;4.80;99.90;;;;;;1895927;75;21100;-90
2023/03/02 00:34:15;;;;;;;26.17;20.80;;;4.70;99.90;;;;;;1916637;74;21188;-89
2023/03/02 00:37:07;;;;;;;28.52;21.95;;;4.80;99.90;;;;;;1882368;75;21585;-89
2023/03/02 00:39:59;;;;;;;27.00;21.02;;;4.80;99.90;;;;;;1886870;75;21091;-89
2023/03/02 00:42:51;;;;;;;29.02;20.77;;;4.80;99.90;;;;;;1885185;75;21111;-91
2023/03/02 00:45:42;;;;;;;26.85;21.12;;;4.90;99.90;;;;;;1896954;75;21199;-90
2023/03/02 00:48:33;;;;;;;29.07;21.55;;;4.90;99.90;;;;;;1893684;75;21095;-91
2023/03/02 00:51:25;;;;;;;26.68;21.07;;;4.80;99.90;;;;;;1903569;75;21176;-90
2023/03/02 00:54:16;;;;;;;27.50;21.55;;;4.80;99.90;;;;;;1885097;75;21322;-90
2023/03/02 00:57:07;;;;;;;31.48;21.33;;;4.80;99.90;;;;;;1882250;75;21114;-89
2023/03/02 00:59:59;;;;;;;27.70;21.23;;;4.80;99.90;;;;;;1916416;75;21164;-89
2023/03/02 01:02:52;;;;;;;28.75;22.00;;;4.80;99.90;;;;;;1884469;75;21125;-90
2023/03/02 01:05:45;;;;;;;26.48;20.85;;;4.80;99.90;;;;;;1898248;75;22167;-89
2023/03/02 01:08:37;;;;;;;26.07;20.15;;;4.80;99.90;;;;;;1894689;75;21086;-90
2023/03/02 01:11:31;;;;;;;28.17;21.48;;;4.80;99.90;;;;;;1890785;75;21059;-91
2023/03/02 01:14:22;;;;;;;30.10;21.97;;;4.90;99.90;;;;;;1883833;76;21566;-90
2023/03/02 01:17:14;;;;;;;28.20;21.57;;;4.90;99.90;;;;;;1899617;75;21157;-89
2023/03/02 01:20:09;;;;;;;27.32;20.80;;;4.80;99.90;;;;;;1895231;75;21090;-90
2023/03/02 01:23:00;;;;;;;27.60;20.50;;;4.80;99.90;;;;;;1887887;75;21109;-91
2023/03/02 01:25:52;;;;;;;29.63;21.62;;;4.80;99.90;;;;;;1884882;75;21159;-90
2023/03/02 01:28:43;;;;;;;30.75;21.70;;;4.80;99.90;;;;;;1898323;75;21062;-90
2023/03/02 01:31:35;;;;;;;25.55;20.60;;;4.80;99.90;;;;;;1896273;75;21159;-89
2023/03/02 01:34:27;;;;;;;28.42;21.05;;;4.80;99.90;;;;;;1887018;75;21086;-90
2023/03/02 01:37:19;;;;;;;28.42;22.05;;;4.80;99.90;;;;;;1906281;75;21122;-89
2023/03/02 01:40:14;;;;;;;28.35;21.62;;;4.80;99.90;;;;;;1890867;75;21103;-89
2023/03/02 01:43:13;;;;;;;29.20;21.35;;;4.80;99.90;;;;;;1904409;75;21176;-89
2023/03/02 01:46:08;;;;;;;29.65;21.73;;;4.80;99.90;;;;;;1894800;75;21090;-89
2023/03/02 01:49:03;;;;;;;30.48;21.68;;;4.70;99.90;;;;;;1883101;75;21193;-89
2023/03/02 01:52:12;;;;;;;29.87;20.95;;;4.70;99.90;;;;;;1916818;75;21126;-89
2023/03/02 01:55:07;;;;;;;26.50;20.48;;;4.70;99.90;;;;;;1894709;75;21146;-90
2023/03/02 01:58:00;;;;;;;31.05;22.87;;;4.70;99.90;;;;;;1884627;75;21134;-90
2023/03/02 02:00:54;;;;;;;27.48;21.60;;;4.70;99.90;;;;;;1871891;77;21103;-90
2023/03/02 02:03:49;;;;;;;27.65;21.65;;;4.60;99.90;;;;;;1882405;75;21185;-89
2023/03/02 02:06:44;;;;;;;29.82;22.82;;;4.60;99.90;;;;;;1882571;75;21087;-91
2023/03/02 02:09:39;;;;;;;29.57;21.68;;;4.60;99.90;;;;;;1881213;75;21189;-90
2023/03/02 02:12:30;;;;;;;28.02;21.95;;;4.60;99.90;;;;;;1901949;75;21095;-90
2023/03/02 02:15:22;;;;;;;27.80;21.45;;;4.60;99.90;;;;;;1903034;75;21133;-90
2023/03/02 02:18:14;;;;;;;29.32;22.13;;;4.70;99.90;;;;;;1893449;75;21084;-90
2023/03/02 02:21:08;;;;;;;29.98;22.05;;;4.80;99.90;;;;;;1897289;75;21059;-90
2023/03/02 02:24:09;;;;;;;22.27;16.60;;;4.70;99.90;;;;;;1894293;75;21131;-90
2023/03/02 02:27:01;;;;;;;28.92;21.68;;;4.70;99.90;;;;;;1899262;75;21633;-90
2023/03/02 02:29:55;;;;;;;29.10;21.45;;;4.70;99.90;;;;;;1896451;75;21091;-89
2023/03/02 02:32:48;;;;;;;28.55;20.60;;;4.70;99.90;;;;;;1904486;75;21190;-89
2023/03/02 02:35:41;;;;;;;30.35;22.17;;;4.50;99.90;;;;;;1883011;74;21131;-90
2023/03/02 02:38:34;;;;;;;28.38;22.00;;;4.50;99.90;;;;;;1906366;74;21102;-90
2023/03/02 02:41:29;;;;;;;29.85;22.35;;;4.50;99.90;;;;;;1908872;74;21194;-90
2023/03/02 02:44:21;;;;;;;29.65;22.55;;;4.40;99.90;;;;;;1915757;74;21149;-90
2023/03/02 02:47:18;;;;;;;29.25;21.60;;;4.40;99.90;;;;;;1898742;74;21187;-90
2023/03/02 02:50:17;;;;;;;30.82;22.27;;;4.40;99.90;;;;;;1924971;74;21147;-90
2023/03/02 02:53:12;;;;;;;29.55;22.70;;;4.30;99.90;;;;;;1913162;74;21059;-90
2023/03/02 02:56:06;;;;;;;28.45;21.82;;;4.30;99.90;;;;;;1910407;74;21160;-89
2023/03/02 02:59:05;;;;;;;28.92;21.37;;;4.30;99.90;;;;;;1895401;74;21050;-91
2023/03/02 03:01:57;;;;;;;30.20;22.07;;;4.20;99.90;;;;;;1893283;74;21223;-90
2023/03/02 03:05:01;;;;;;;31.57;21.90;;;4.20;99.90;;;;;;1895475;74;21126;-90
2023/03/02 03:07:46;;;;;;;29.90;21.82;;;4.20;99.90;;;;;;1906343;74;21192;-89
2023/03/02 03:10:41;;;;;;;28.90;21.73;;;4.20;99.90;;;;;;1893471;76;21510;-89
2023/03/02 03:13:35;;;;;;;29.12;21.48;;;4.30;99.90;;;;;;1916260;74;21640;-89
2023/03/02 03:16:28;;;;;;;29.35;22.13;;;4.10;99.90;;;;;;1914974;74;21206;-89
2023/03/02 03:19:23;;;;;;;28.73;21.68;;;4.10;99.90;;;;;;1916064;74;21110;-89
2023/03/02 03:22:17;;;;;;;28.73;21.25;;;4.00;99.90;;;;;;1908279;74;21093;-89
2023/03/02 03:25:14;;;;;;;27.40;21.30;;;3.90;99.90;;;;;;1906930;74;21204;-89
2023/03/02 03:28:05;;;;;;;30.65;22.20;;;3.80;99.90;;;;;;1904180;74;21086;-90
2023/03/02 03:31:04;;;;;;;27.17;20.83;;;3.80;99.90;;;;;;1904157;74;21561;-91
2023/03/02 03:33:59;;;;;;;29.07;21.68;;;3.80;99.90;;;;;;1904759;74;21168;-89
2023/03/02 03:52:47;;;;;;;30.80;21.62;;;3.60;99.90;;;;;;1975671;72;22138;-90
2023/03/02 03:55:40;;;;;;;32.98;23.10;;;3.60;99.90;;;;;;1929648;73;21098;-89
2023/03/02 03:58:32;;;;;;;30.60;21.80;;;3.60;99.90;;;;;;1904957;75;21149;-89
2023/03/02 04:01:33;;;;;;;30.50;21.17;;;3.60;99.90;;;;;;1906164;75;21092;-90
2023/03/02 04:04:19;;;;;;;28.05;21.35;;;3.60;99.90;;;;;;1905252;75;21116;-89
2023/03/02 04:07:11;;;;;;;29.65;22.42;;;3.50;99.90;;;;;;1904543;75;21630;-91
2023/03/02 04:10:07;;;;;;;31.60;22.17;;;3.50;99.90;;;;;;1905188;75;21094;-90
2023/03/02 04:13:00;;;;;;;32.65;22.87;;;3.50;99.90;;;;;;1927843;74;21090;-90
2023/03/02 04:15:52;;;;;;;29.15;22.07;;;3.50;99.90;;;;;;1868426;77;21118;-90
2023/03/02 04:18:44;;;;;;;30.80;22.93;;;3.50;99.90;;;;;;1920518;74;21056;-90
2023/03/02 04:21:35;;;;;;;32.13;22.50;;;3.50;99.90;;;;;;1906008;74;21157;-89
2023/03/02 04:24:27;;;;;;;29.75;22.48;;;3.50;99.90;;;;;;1927832;74;21098;-89
2023/03/02 04:27:20;;;;;;;27.27;20.88;;;3.50;99.90;;;;;;1848423;77;21169;-90
2023/03/02 04:30:15;;;;;;;30.45;22.35;;;3.50;99.90;;;;;;1837949;78;21196;-90
2023/03/02 04:33:07;;;;;;;30.55;22.22;;;3.50;99.90;;;;;;1905343;75;21107;-90
2023/03/02 04:35:59;;;;;;;32.30;23.02;;;3.50;99.90;;;;;;1904923;75;21055;-90
2023/03/02 04:38:51;;;;;;;31.33;22.17;;;3.50;99.90;;;;;;1905568;74;21236;-89
2023/03/02 04:41:43;;;;;;;29.25;21.70;;;3.50;99.90;;;;;;1905157;75;21094;-91
2023/03/02 04:44:35;;;;;;;30.77;22.32;;;3.50;99.90;;;;;;1904808;75;21090;-90
2023/03/02 04:47:26;;;;;;;29.42;22.27;;;3.50;99.90;;;;;;1905040;75;21391;-90
2023/03/02 04:50:18;;;;;;;32.25;23.50;;;3.50;99.90;;;;;;1905003;75;21044;-90
2023/03/02 04:53:10;;;;;;;30.45;22.25;;;3.50;99.90;;;;;;1907105;74;21177;-91
2023/03/02 04:56:04;;;;;;;30.17;22.20;;;3.70;99.90;;;;;;1869132;76;21137;-90
2023/03/02 04:58:56;;;;;;;33.53;22.32;;;3.70;99.90;;;;;;1875862;75;21184;-90
2023/03/02 05:01:48;;;;;;;32.40;22.48;;;3.70;99.90;;;;;;1877966;75;21103;-88
2023/03/02 05:04:41;;;;;;;30.75;22.35;;;3.70;99.90;;;;;;1899565;75;21192;-90
2023/03/02 05:07:32;;;;;;;30.35;21.60;;;3.60;99.90;;;;;;1880222;75;21209;-89
2023/03/02 05:10:25;;;;;;;31.62;22.15;;;3.60;99.90;;;;;;1925695;74;21150;-89
2023/03/02 05:13:19;;;;;;;31.82;22.77;;;3.50;99.90;;;;;;1916835;73;21153;-90
2023/03/02 05:16:10;;;;;;;30.35;21.90;;;3.50;99.90;;;;;;1912238;74;21119;-89
2023/03/02 05:19:03;;;;;;;30.82;21.87;;;3.50;99.90;;;;;;1855169;76;21133;-89
2023/03/02 05:21:55;;;;;;;31.60;21.55;;;3.50;99.90;;;;;;1855008;76;21188;-89
2023/03/02 05:24:46;;;;;;;32.58;22.30;;;3.50;99.90;;;;;;1913349;74;21082;-89
2023/03/02 05:27:38;;;;;;;30.30;22.27;;;3.50;99.90;;;;;;1908553;75;21218;-89
2023/03/02 05:30:31;;;;;;;33.53;22.35;;;3.50;99.90;;;;;;1905407;75;21107;-89
2023/03/02 05:33:23;;;;;;;30.97;22.45;;;3.60;99.90;;;;;;1869885;76;21550;-89
2023/03/02 05:36:17;;;;;;;29.82;21.23;;;3.70;99.90;;;;;;1925187;74;21171;-89
2023/03/02 05:39:11;;;;;;;32.73;22.25;;;3.70;99.90;;;;;;1924130;73;21204;-90
2023/03/02 05:42:04;;;;;;;32.80;22.00;;;3.80;99.90;;;;;;1924214;74;21055;-90
2023/03/02 05:44:56;;;;;;;34.50;22.75;;;3.80;99.90;;;;;;1946668;73;21168;-90
2023/03/02 05:47:48;;;;;;;33.23;23.35;;;3.80;99.90;;;;;;1946488;73;21113;-89
2023/03/02 05:50:39;;;;;;;31.93;23.15;;;3.80;99.90;;;;;;1914660;74;21116;-91
2023/03/02 05:56:11;;;;;;;29.18;21.97;;;3.80;99.90;;;;;;1958796;72;22187;-90
2023/03/02 05:59:02;;;;;;;33.42;22.52;;;3.80;99.90;;;;;;1896708;75;21119;-91
2023/03/02 06:01:57;;;;;;;31.50;23.07;;;3.80;99.90;;;;;;1888565;75;21205;-90
2023/03/02 06:04:47;;;;;;;31.87;22.93;;;3.90;99.90;;;;;;1887184;75;21110;-91
2023/03/02 06:07:39;;;;;;;30.23;21.55;;;3.80;99.90;;;;;;1898346;75;21138;-91
2023/03/02 06:10:31;;;;;;;30.10;22.55;;;3.90;99.90;;;;;;1897834;75;21108;-90
2023/03/02 06:13:23;;;;;;;29.87;21.85;;;4.00;99.90;;;;;;1886171;75;21165;-90
2023/03/02 06:16:15;;;;;;;33.08;23.55;;;4.00;99.90;;;;;;1909934;75;21098;-91
2023/03/02 06:19:07;;;;;;;29.87;22.65;;;4.00;99.90;;;;;;1896382;75;21656;-90
2023/03/02 06:21:59;;;;;;;32.40;23.10;;;4.00;99.90;;;;;;1899770;75;21047;-90
2023/03/02 06:24:53;;;;;;;31.55;23.47;;;4.10;99.90;;;;;;1918152;75;21142;-90
2023/03/02 06:27:44;;;;;;;34.38;22.50;;;4.10;99.90;;;;;;1902137;75;21094;-91
2023/03/02 06:30:36;;;;;;;30.08;22.27;;;4.10;99.90;;;;;;1880501;76;21163;-91
2023/03/02 06:33:29;;;;;;;31.87;22.87;;;4.10;99.90;;;;;;1864842;76;21054;-90
2023/03/02 06:36:21;;;;;;;33.33;22.55;;;4.10;99.90;;;;;;1884350;76;21139;-92
2023/03/02 06:39:15;;;;;;;32.58;22.87;;;4.20;99.90;;;;;;1886483;75;21130;-92
2023/03/02 06:42:07;;;;;;;31.45;22.93;;;4.10;99.90;;;;;;1885711;75;21139;-92
2023/03/02 06:45:17;;;;;;;30.85;21.85;;;4.10;99.90;;;;;;1899709;75;21063;-90
2023/03/02 06:48:09;;;;;;;30.48;22.73;;;4.10;99.90;;;;;;1884275;75;21102;-91
2023/03/02 06:51:00;;;;;;;32.55;22.65;;;4.10;99.90;;;;;;1884239;76;21093;-91
2023/03/02 06:53:52;;;;;;;29.52;22.37;;;4.10;99.90;;;;;;1884797;75;21142;-90
2023/03/02 06:59:34;;;;;;;34.67;22.58;;;4.10;99.90;;;;;;1976156;72;22197;-90
2023/03/02 07:02:25;;;;;;;30.92;22.93;;;4.10;99.90;;;;;;1925196;73;21094;-89
2023/03/02 07:05:17;;;;;;;30.25;22.32;;;4.20;99.90;;;;;;1860716;77;21111;-91
2023/03/02 07:08:12;;;;;;;33.58;23.32;;;4.30;99.90;;;;;;1918334;74;21560;-91
2023/03/02 07:11:09;;;;;;;31.23;23.50;;;4.30;99.90;;;;;;1904868;75;21138;-89
2023/03/02 07:14:02;;;;;;;32.10;23.60;;;4.30;99.90;;;;;;1922251;74;21250;-90
2023/03/02 07:16:56;;;;;;;30.55;22.77;;;4.40;99.90;;;;;;1926104;74;21064;-89
2023/03/02 07:19:47;;;;;;;35.55;23.98;;;4.40;99.90;;;;;;1905365;75;21079;-90
2023/03/02 07:22:39;;;;;;;33.15;23.05;;;4.40;99.90;;;;;;1905741;75;21056;-89
2023/03/02 07:25:31;;;;;;;35.00;23.77;;;4.40;99.90;;;;;;1924420;74;21607;-90
2023/03/02 07:28:23;;;;;;;33.23;23.20;;;4.50;99.90;;;;;;1938492;74;21090;-91
2023/03/02 07:31:14;;;;;;;30.23;21.85;;;4.60;99.90;;;;;;1930889;74;21133;-90
2023/03/02 07:34:06;;;;;;;33.60;23.10;;;4.60;99.90;;;;;;1910010;74;21114;-91
2023/03/02 07:36:58;;;;;;;31.40;23.02;;;4.60;99.90;;;;;;1920489;74;21187;-90
2023/03/02 07:39:50;;;;;;;34.38;23.73;;;4.60;99.90;;;;;;1907174;75;21059;-90
2023/03/02 07:42:41;;;;;;;31.30;23.35;;;4.70;99.90;;;;;;1906606;75;21087;-90
2023/03/02 07:45:33;;;;;;;35.63;23.47;;;4.70;99.90;;;;;;1905865;75;21086;-91
2023/03/02 07:48:24;;;;;;;32.65;23.42;;;4.80;99.90;;;;;;1870172;77;21052;-91
2023/03/02 07:51:16;;;;;;;33.18;24.47;;;4.80;99.90;;;;;;1921280;73;21301;-90
2023/03/02 07:54:08;;;;;;;32.63;23.50;;;4.90;99.90;;;;;;1949530;73;21152;-91
2023/03/02 07:57:02;;;;;;;32.20;23.30;;;4.90;99.90;;;;;;1911415;73;21099;-90
2023/03/02 07:59:54;;;;;;;34.08;24.72;;;4.90;99.90;;;;;;1873656;76;21115;-91
2023/03/02 08:02:45;;;;;;;33.85;23.80;;;4.90;99.90;;;;;;1862519;77;21220;-90
2023/03/02 08:05:37;;;;;;;33.42;24.77;;;5.00;99.90;;;;;;1904836;75;21091;-90
2023/03/02 08:08:31;;;;;;;33.80;24.10;;;5.00;99.90;;;;;;1904627;75;21135;-91
2023/03/02 08:11:24;;;;;;;38.70;25.75;;;5.00;99.90;;;;;;1929564;74;21131;-90
2023/03/02 08:14:15;;;;;;;41.13;24.52;;;4.90;99.90;;;;;;1917421;74;21070;-89
2023/03/02 08:17:08;;;;;;;39.80;25.15;;;5.00;99.90;;;;;;1905194;75;21132;-90
2023/03/02 08:19:59;;;;;;;40.33;25.30;;;5.00;99.90;;;;;;1904794;75;21132;-92
2023/03/02 08:22:51;;;;;;;35.08;23.98;;;5.20;99.90;;;;;;1904490;75;21063;-89
2023/03/02 08:25:44;;;;;;;34.78;24.35;;;5.30;99.90;;;;;;1904869;75;21213;-90
2023/03/02 08:28:36;;;;;;;37.05;25.27;;;5.30;99.90;;;;;;1868117;77;21106;-91
2023/03/02 08:31:28;;;;;;;37.70;25.17;;;5.40;99.90;;;;;;1904472;75;21094;-90
2023/03/02 08:34:39;;;;;;;34.10;24.43;;;5.40;99.90;;;;;;1903962;75;21052;-90
2023/03/02 08:37:31;;;;;;;34.20;23.85;;;5.30;99.90;;;;;;1904358;75;21160;-91
2023/03/02 08:40:26;;;;;;;35.20;24.67;;;5.30;99.90;;;;;;1904809;75;21055;-91
2023/03/02 08:43:18;;;;;;;34.03;23.55;;;5.30;99.90;;;;;;1867300;77;21573;-90
2023/03/02 08:46:11;;;;;;;35.40;24.30;;;5.40;99.90;;;;;;1904143;75;21059;-90
2023/03/02 08:49:04;;;;;;;37.60;24.52;;;5.60;99.90;;;;;;1905829;75;21116;-89
2023/03/02 08:51:56;;;;;;;34.65;25.15;;;5.60;99.90;;;;;;1904810;75;21156;-90
2023/03/02 08:54:47;;;;;;;36.50;25.45;;;5.60;99.90;;;;;;1904787;75;21569;-90
2023/03/02 08:57:46;;;;;;;33.75;24.60;;;5.70;99.90;;;;;;1904107;75;21391;-91
2023/03/02 09:00:37;;;;;;;35.98;25.17;;;5.80;99.90;;;;;;1901126;74;21108;-90
2023/03/02 09:03:31;;;;;;;38.30;26.77;;;5.90;99.90;;;;;;1811360;77;21138;-91
2023/03/02 09:06:22;;;;;;;36.25;24.10;;;5.80;99.90;;;;;;1917787;74;21127;-90
2023/03/02 09:09:16;;;;;;;36.63;25.00;;;5.90;99.90;;;;;;1901033;75;21090;-91
2023/03/02 09:12:08;;;;;;;36.13;25.60;;;6.00;99.90;;;;;;1901205;75;21103;-90
2023/03/02 09:15:00;;;;;;;37.63;25.17;;;6.00;99.90;;;;;;1920560;74;21154;-91
2023/03/02 09:17:51;;;;;;;36.00;25.12;;;6.00;99.90;;;;;;1900176;74;21133;-90
2023/03/02 09:20:48;;;;;;;36.65;26.15;;;6.20;99.90;;;;;;1901143;75;21099;-90
2023/03/02 09:23:39;;;;;;;35.30;25.45;;;6.20;99.90;;;;;;1825428;78;21134;-90
2023/03/02 09:26:41;;;;;;;;;;;;;;;;;;;;;
2023/03/02 09:29:33;;;;;;;37.48;24.92;;;6.50;99.90;;;;;;1911562;74;21132;-91
2023/03/02 09:32:27;;;;;;;35.43;25.92;;;6.60;99.90;;;;;;1836804;78;21107;-90
2023/03/02 09:35:19;;;;;;;32.98;25.57;;;6.50;99.90;;;;;;1827807;78;21126;-90
2023/03/02 09:38:14;;;;;;;37.98;26.07;;;6.60;99.90;;;;;;1904422;74;21151;-90
2023/03/02 09:41:30;;;;;;;33.35;23.92;;;6.60;99.90;;;;;;1907980;74;21111;-91
2023/03/02 09:44:43;;;;;;;35.17;26.00;;;6.60;99.90;;;;;;1897022;74;21184;-91
2023/03/02 09:47:46;;;;;;;34.55;24.32;;;6.80;99.90;;;;;;1890228;74;21059;-91
2023/03/02 09:50:40;;;;;;;34.45;24.63;;;6.80;99.90;;;;;;1890502;76;21118;-90
2023/03/02 09:53:46;;;;;;;35.10;24.20;;;6.90;99.90;;;;;;1890304;74;21078;-90
2023/03/02 09:56:41;;;;;;;33.48;24.60;;;6.90;99.90;;;;;;1891123;75;21103;-90
2023/03/02 09:59:37;;;;;;;33.83;24.17;;;6.90;99.90;;;;;;1916893;75;21139;-91
2023/03/02 10:02:32;;;;;;;33.08;24.25;;;6.90;99.90;;;;;;1898805;75;21207;-90
2023/03/02 10:05:27;;;;;;;33.95;24.80;;;6.90;99.90;;;;;;1911758;74;21111;-91
2023/03/02 10:08:25;;;;;;;33.65;24.10;;;7.00;99.90;;;;;;1892110;76;21542;-91
2023/03/02 10:14:14;;;;;;;33.25;23.67;;;7.10;99.90;;;;;;1976227;72;22213;-90
2023/03/02 10:17:19;;;;;;;32.93;23.77;;;7.20;99.90;;;;;;1951530;73;21110;-91
2023/03/02 10:20:17;;;;;;;32.88;24.90;;;7.20;99.90;;;;;;1917880;75;21191;-91
2023/03/02 10:23:19;;;;;;;33.63;24.20;;;7.40;99.90;;;;;;1917260;75;21094;-92
2023/03/02 10:54:13;;;;;;;33.98;24.18;;;8.10;99.90;;;;;;2097255;68;22098;-90
2023/03/02 10:57:07;;;;;;;32.33;23.60;;;7.20;99.90;;;;;;2062640;69;21533;-90
2023/03/02 11:00:03;;;;;;;34.18;24.55;;;7.20;99.90;;;;;;1978297;72;21074;-90
2023/03/02 11:02:59;;;;;;;33.98;25.43;;;7.40;99.90;;;;;;1956210;72;21075;-90
2023/03/02 11:05:51;;;;;;;35.60;24.98;;;7.30;99.90;;;;;;1970341;72;21383;-89
2023/03/02 11:08:45;;;;;;;35.05;24.87;;;7.30;99.90;;;;;;1992388;70;21036;-90
2023/03/02 11:11:36;;;;;;;32.70;24.57;;;7.20;99.90;;;;;;2053342;69;21151;-90
2023/03/02 11:14:28;;;;;;;34.78;24.67;;;7.30;99.90;;;;;;2023725;70;21093;-91
2023/03/02 11:17:36;;;;;;;33.25;23.65;;;7.30;99.90;;;;;;1941989;73;21609;-90
2023/03/02 11:20:38;;;;;;;35.00;24.92;;;7.30;99.90;;;;;;1963716;72;21079;-90
2023/03/02 11:23:48;;;;;;;32.55;23.40;;;7.10;99.90;;;;;;2033726;70;21581;-91
2023/03/02 11:26:46;;;;;;;36.23;25.35;;;7.30;99.90;;;;;;2043023;69;21141;-90
2023/03/02 11:44:02;;;;;;;32.83;22.87;;;7.20;99.90;;;;;;1947884;72;22170;-90
2023/03/02 11:46:57;;;;;;;35.30;24.80;;;7.10;99.90;;;;;;1906059;75;21113;-91
2023/03/02 11:49:54;;;;;;;34.25;24.27;;;7.10;99.90;;;;;;1905179;75;21087;-91
2023/03/02 11:52:50;;;;;;;34.53;23.95;;;7.30;99.90;;;;;;1905479;75;21152;-90
2023/03/02 12:12:40;;;;;;;32.13;22.65;;;7.80;99.90;;;;;;1976038;72;22194;-89
2023/03/02 12:15:42;;;;;;;34.15;23.42;;;8.00;99.90;;;;;;1917996;75;21217;-92
2023/03/02 12:18:47;;;;;;;31.65;22.37;;;8.00;99.90;;;;;;1937110;73;21145;-92
2023/03/02 12:21:42;;;;;;;30.70;21.48;;;8.00;99.90;;;;;;1951040;73;21102;-92
2023/03/02 12:24:36;;;;;;;29.95;21.00;;;8.20;99.90;;;;;;1951030;73;21184;-91
2023/03/02 12:27:30;;;;;;;34.27;23.20;;;8.10;99.90;;;;;;1927678;73;21106;-91
2023/03/02 12:30:29;;;;;;;30.05;21.52;;;8.10;99.90;;;;;;1917459;75;21083;-90
2023/03/02 12:33:22;;;;;;;33.15;23.30;;;8.20;99.90;;;;;;1918451;75;21063;-91
2023/03/02 12:36:18;;;;;;;33.70;22.07;;;8.20;99.90;;;;;;1917488;75;21103;-91
2023/03/02 12:39:17;;;;;;;30.48;22.48;;;8.20;99.90;;;;;;1917780;75;21120;-91
2023/03/02 12:42:34;;;;;;;31.68;22.52;;;8.20;99.90;;;;;;1917537;75;21117;-90
2023/03/02 12:45:44;;;;;;;32.20;23.00;;;8.30;99.90;;;;;;1917666;75;21153;-91
2023/03/02 12:48:40;;;;;;;31.37;21.97;;;8.50;99.90;;;;;;1940187;73;21109;-90
2023/03/02 12:51:38;;;;;;;27.13;19.40;;;8.50;99.90;;;;;;1931796;73;21164;-90
2023/03/02 12:57:51;;;;;;;30.00;22.45;;;8.70;99.90;;;;;;2045957;69;22642;-89
2023/03/02 13:00:48;;;;;;;19.05;12.65;;;8.80;99.90;;;;;;1984610;72;21115;-91
2023/03/02 13:03:46;;;;;;;29.00;18.32;;;8.90;99.90;;;;;;1985304;72;21304;-89
2023/03/02 13:06:40;;;;;;;25.05;18.15;;;8.80;99.90;;;;;;1985903;72;21136;-90
2023/03/02 13:09:32;;;;;;;26.93;19.40;;;8.80;99.90;;;;;;1985505;72;21063;-90
2023/03/02 13:12:29;;;;;;;27.35;20.17;;;9.00;99.90;;;;;;1986131;71;21061;-92
2023/03/02 13:15:21;;;;;;;29.00;19.87;;;9.10;99.90;;;;;;1965423;72;21102;-90
2023/03/02 13:18:14;;;;;;;27.17;20.15;;;9.10;99.90;;;;;;1984850;72;21100;-90
2023/03/02 13:21:11;;;;;;;30.17;21.50;;;9.10;99.90;;;;;;1984875;72;21073;-90
2023/03/02 13:24:03;;;;;;;28.62;20.70;;;9.20;99.90;;;;;;1985255;72;21085;-90
2023/03/02 13:26:58;;;;;;;30.70;21.52;;;9.40;99.90;;;;;;1950495;72;21046;-90
2023/03/02 13:29:51;;;;;;;30.65;21.55;;;9.50;99.90;;;;;;1985467;72;21030;-90
2023/03/02 13:32:43;;;;;;;32.33;21.35;;;9.50;99.90;;;;;;1984985;72;21138;-90
2023/03/02 13:35:37;;;;;;;26.65;20.37;;;9.50;99.90;;;;;;1986042;72;21091;-89
2023/03/02 13:38:31;;;;;;;28.98;20.60;;;9.70;99.90;;;;;;1984861;72;21106;-91
2023/03/02 13:41:24;;;;;;;28.90;21.30;;;9.60;99.90;;;;;;1985923;72;21093;-90
2023/03/02 13:44:23;;;;;;;30.10;20.80;;;9.70;99.90;;;;;;1984775;72;21081;-90
2023/03/02 13:47:23;;;;;;;27.93;20.08;;;9.80;99.90;;;;;;1985232;72;21194;-89
2023/03/02 13:50:21;;;;;;;28.55;20.77;;;9.90;99.90;;;;;;1985066;72;21074;-89
2023/03/02 13:53:13;;;;;;;26.17;19.92;;;10.10;99.90;;;;;;1985250;72;21090;-91
2023/03/02 13:56:05;;;;;;;29.10;20.68;;;10.10;99.90;;;;;;1968387;72;21172;-89
2023/03/02 13:58:57;;;;;;;28.47;20.70;;;10.20;99.90;;;;;;1986405;72;21085;-90
2023/03/02 14:01:50;;;;;;;29.25;20.27;;;10.20;99.90;;;;;;1991000;72;21168;-90
2023/03/02 14:04:41;;;;;;;28.17;20.75;;;10.20;99.90;;;;;;1992177;72;21099;-90
2023/03/02 14:07:34;;;;;;;26.00;19.62;;;10.20;99.90;;;;;;1989394;72;21191;-89
2023/03/02 14:10:29;;;;;;;27.35;19.07;;;10.30;99.90;;;;;;1963710;72;21195;-90
2023/03/02 14:13:24;;;;;;;25.55;19.60;;;10.40;99.90;;;;;;1984535;72;21076;-90
2023/03/02 14:16:16;;;;;;;27.60;19.52;;;10.40;99.90;;;;;;1983811;71;21176;-92
2023/03/02 14:19:09;;;;;;;33.85;20.10;;;10.40;99.90;;;;;;1984107;72;21077;-90
2023/03/02 14:22:01;;;;;;;29.02;19.60;;;10.50;99.90;;;;;;1985350;72;21074;-90
2023/03/02 14:24:56;;;;;;;28.05;20.08;;;10.70;99.90;;;;;;1984807;72;21158;-91
2023/03/02 14:27:48;;;;;;;24.80;18.80;;;10.60;99.90;;;;;;1984100;72;21163;-90
2023/03/02 14:30:43;;;;;;;29.87;20.48;;;10.60;99.90;;;;;;1984927;72;21038;-91
2023/03/02 14:33:35;;;;;;;26.05;20.43;;;10.50;99.90;;;;;;1984872;72;21074;-90
2023/03/02 14:36:30;;;;;;;26.90;20.02;;;10.60;99.90;;;;;;1963724;72;21160;-92
2023/03/02 14:42:05;;;;;;;28.20;21.23;;;11.90;99.90;;;;;;1951904;72;22242;-91
2023/03/02 14:44:56;;;;;;;26.82;19.27;;;12.70;99.90;;;;;;1884594;75;21188;-89
2023/03/02 14:47:50;;;;;;;29.37;20.68;;;13.20;99.90;;;;;;1898529;75;21051;-88
2023/03/02 14:50:44;;;;;;;25.85;20.00;;;13.80;99.90;;;;;;1886330;75;21144;-90
2023/03/02 14:53:36;;;;;;;27.58;20.88;;;14.10;99.90;;;;;;1888886;75;21138;-90
2023/03/02 14:56:28;;;;;;;27.25;20.32;;;14.10;99.90;;;;;;1917186;75;21132;-89
2023/03/02 14:59:19;;;;;;;25.12;19.10;;;14.30;99.90;;;;;;1902747;75;21125;-89
2023/03/02 15:02:12;;;;;;;27.48;20.40;;;14.00;99.90;;;;;;1906433;75;21058;-90
2023/03/02 15:05:05;;;;;;;23.70;18.95;;;12.50;99.90;;;;;;1907711;75;21133;-90
2023/03/02 15:07:57;;;;;;;24.27;19.17;;;11.80;99.90;;;;;;1896410;75;21059;-89
2023/03/02 15:10:50;;;;;;;24.18;18.95;;;11.50;99.90;;;;;;1884586;76;21179;-91
2023/03/02 15:13:42;;;;;;;25.52;19.67;;;11.50;99.90;;;;;;1884116;76;21098;-90
2023/03/02 15:16:35;;;;;;;23.15;18.23;;;11.30;99.90;;;;;;1914171;75;21114;-91
2023/03/02 15:19:26;;;;;;;23.27;17.62;;;11.20;99.90;;;;;;1908663;75;21071;-90
2023/03/02 15:22:20;;;;;;;26.20;19.40;;;11.20;99.90;;;;;;1917180;75;21102;-90
2023/03/02 15:27:52;;;;;;;23.60;18.55;;;11.00;99.90;;;;;;1977428;72;22284;-92
2023/03/02 15:30:44;;;;;;;25.32;18.67;;;10.90;99.90;;;;;;1950110;73;21099;-92
2023/03/02 15:33:36;;;;;;;25.50;17.65;;;11.00;99.90;;;;;;1918000;75;21067;-89
2023/03/02 15:36:28;;;;;;;24.90;19.10;;;10.90;99.90;;;;;;1918450;74;21179;-89
2023/03/02 15:39:19;;;;;;;24.12;18.48;;;10.90;99.90;;;;;;1940135;73;21171;-90
2023/03/02 15:42:12;;;;;;;24.75;18.05;;;10.90;99.90;;;;;;1874249;76;21112;-91
2023/03/02 15:45:05;;;;;;;26.87;16.90;;;11.10;99.90;;;;;;1880133;76;21172;-92
2023/03/02 15:47:59;;;;;;;23.35;16.97;;;12.00;99.90;;;;;;1882784;76;21118;-90
2023/03/02 15:50:58;;;;;;;24.50;17.10;;;13.10;99.90;;;;;;1882368;76;21059;-89
2023/03/02 15:53:50;;;;;;;24.55;16.62;;;13.30;99.90;;;;;;1917315;75;21131;-89
2023/03/02 15:56:59;;;;;;;23.18;17.98;;;13.60;99.90;;;;;;1940480;73;21144;-89
2023/03/02 15:59:51;;;;;;;21.25;15.95;;;13.50;99.90;;;;;;1917625;75;21116;-90
2023/03/02 16:02:42;;;;;;;22.22;15.78;;;13.90;99.90;;;;;;1917878;75;21110;-91
2023/03/02 16:05:34;;;;;;;25.75;17.92;;;13.80;99.90;;;;;;1916992;75;21107;-89
2023/03/02 16:08:25;;;;;;;23.18;17.77;;;13.80;99.90;;;;;;1916775;73;21090;-90
2023/03/02 16:11:21;;;;;;;21.33;16.60;;;13.70;99.90;;;;;;1917594;75;21118;-90
2023/03/02 16:14:12;;;;;;;21.00;16.90;;;13.80;99.90;;;;;;1937374;73;21145;-90
2023/03/02 16:17:04;;;;;;;21.37;17.50;;;13.90;99.90;;;;;;1917714;75;21103;-89
2023/03/02 16:19:56;;;;;;;22.70;17.48;;;14.00;99.90;;;;;;1917364;73;21127;-90
2023/03/02 16:22:48;;;;;;;21.57;15.45;;;13.50;99.90;;;;;;1917713;75;21165;-90
2023/03/02 16:25:43;;;;;;;22.35;16.45;;;13.20;99.90;;;;;;1880672;76;21176;-89